createdAt,value
2023-05-21T00:00:53.621Z,100.00
2023-05-21T00:01:55.254Z,100.00
2023-05-21T00:02:56.954Z,100.00
2023-05-21T00:03:58.687Z,100.00
2023-05-21T00:05:00.470Z,100.00
2023-05-21T00:06:02.260Z,100.00
2023-05-21T00:07:04.053Z,100.00
2023-05-21T00:08:05.707Z,100.00
2023-05-21T00:09:07.329Z,100.00
2023-05-21T00:10:09.392Z,100.00
2023-05-21T00:11:11.015Z,100.00
2023-05-21T00:12:12.720Z,100.00
2023-05-21T00:13:14.339Z,100.00
2023-05-21T00:14:15.964Z,100.00
2023-05-21T00:15:17.585Z,100.00
2023-05-21T00:16:19.238Z,100.00
2023-05-21T00:17:20.915Z,100.00
2023-05-21T00:18:22.686Z,100.00
2023-05-21T00:19:24.618Z,100.00
2023-05-21T00:20:26.315Z,100.00
2023-05-21T00:21:27.914Z,100.00
2023-05-21T00:22:29.484Z,100.00
2023-05-21T00:23:31.118Z,100.00
2023-05-21T00:24:32.685Z,100.00
2023-05-21T00:25:34.468Z,100.00
2023-05-21T00:26:36.235Z,100.00
2023-05-21T00:27:38.169Z,100.00
2023-05-21T00:28:40.512Z,100.00
2023-05-21T00:29:44.134Z,100.00
2023-05-21T00:30:46.029Z,100.00
2023-05-21T00:31:47.883Z,100.00
2023-05-21T00:32:49.679Z,100.00
2023-05-21T00:33:51.301Z,100.00
2023-05-21T00:34:53.103Z,100.00
2023-05-21T00:35:55.809Z,100.00
2023-05-21T00:36:57.611Z,100.00
2023-05-21T00:37:59.228Z,100.00
2023-05-21T00:39:00.816Z,100.00
2023-05-21T00:40:02.684Z,100.00
2023-05-21T00:41:04.366Z,100.00
2023-05-21T00:42:05.950Z,100.00
2023-05-21T00:43:07.616Z,100.00
2023-05-21T00:44:09.788Z,100.00
2023-05-21T00:45:11.398Z,100.00
2023-05-21T00:46:18.634Z,100.00
2023-05-21T00:47:21.386Z,100.00
2023-05-21T00:48:23.780Z,100.00
2023-05-21T00:49:25.549Z,100.00
2023-05-21T00:50:27.376Z,100.00
2023-05-21T00:51:29.149Z,100.00
2023-05-21T00:52:31.171Z,100.00
2023-05-21T00:53:33.038Z,100.00
2023-05-21T00:54:34.689Z,100.00
2023-05-21T00:55:39.758Z,100.00
2023-05-21T00:56:41.833Z,100.00
2023-05-21T00:57:43.594Z,100.00
2023-05-21T00:58:45.230Z,100.00
2023-05-21T00:59:48.080Z,100.00
2023-05-21T01:00:49.700Z,100.00
2023-05-21T01:01:52.589Z,100.00
2023-05-21T01:02:55.062Z,100.00
2023-05-21T01:03:56.744Z,100.00
2023-05-21T01:04:58.488Z,100.00
2023-05-21T01:06:00.394Z,100.00
2023-05-21T01:07:02.031Z,100.00
2023-05-21T01:08:04.298Z,100.00
2023-05-21T01:09:06.484Z,100.00
2023-05-21T01:10:10.504Z,100.00
2023-05-21T01:11:12.790Z,100.00
2023-05-21T01:12:15.116Z,100.00
2023-05-21T01:13:17.668Z,100.00
2023-05-21T01:14:20.643Z,100.00
2023-05-21T01:15:22.427Z,100.00
2023-05-21T01:16:24.196Z,100.00
2023-05-21T01:17:27.470Z,100.00
2023-05-21T01:18:29.406Z,100.00
2023-05-21T01:19:31.262Z,100.00
2023-05-21T01:20:33.193Z,100.00
2023-05-21T01:21:40.576Z,100.00
2023-05-21T01:22:47.629Z,100.00
2023-05-21T01:23:49.264Z,100.00
2023-05-21T01:24:51.412Z,100.00
2023-05-21T01:25:53.696Z,100.00
2023-05-21T01:26:55.358Z,100.00
2023-05-21T01:27:56.953Z,100.00
2023-05-21T01:28:58.778Z,100.00
2023-05-21T01:30:00.443Z,100.00
2023-05-21T01:31:12.354Z,100.00
2023-05-21T01:32:19.132Z,100.00
2023-05-21T01:33:28.846Z,100.00
2023-05-21T01:34:37.737Z,100.00
2023-05-21T01:35:44.458Z,100.00
2023-05-21T01:36:51.308Z,100.00
2023-05-21T01:38:05.174Z,100.00
2023-05-21T01:39:14.301Z,100.00
2023-05-21T01:40:55.041Z,100.00
2023-05-21T01:41:58.053Z,100.00
2023-05-21T01:43:00.046Z,100.00
2023-05-21T01:44:04.506Z,100.00
2023-05-21T01:45:07.306Z,100.00
2023-05-21T01:46:13.016Z,100.00
2023-05-21T01:47:17.081Z,100.00
2023-05-21T01:48:19.654Z,100.00
2023-05-21T01:49:22.768Z,100.00
2023-05-21T01:50:25.568Z,100.00
2023-05-21T01:51:27.871Z,100.00
2023-05-21T01:52:29.462Z,100.00
2023-05-21T01:53:31.338Z,100.00
2023-05-21T01:54:32.902Z,100.00
2023-05-21T01:55:34.947Z,100.00
2023-05-21T01:56:36.665Z,100.00
2023-05-21T01:57:38.350Z,100.00
2023-05-21T01:58:39.948Z,100.00
2023-05-21T01:59:41.567Z,100.00
2023-05-21T02:00:43.280Z,100.00
2023-05-21T02:01:44.979Z,100.00
2023-05-21T02:02:46.881Z,100.00
2023-05-21T02:03:48.735Z,100.00
2023-05-21T02:04:50.382Z,100.00
2023-05-21T02:05:52.086Z,100.00
2023-05-21T02:06:53.792Z,100.00
2023-05-21T02:07:55.480Z,100.00
2023-05-21T02:08:57.561Z,100.00
2023-05-21T02:09:59.128Z,100.00
2023-05-21T02:11:00.804Z,100.00
2023-05-21T02:12:03.232Z,100.00
2023-05-21T02:13:04.954Z,100.00
2023-05-21T02:14:06.572Z,100.00
2023-05-21T02:15:08.317Z,100.00
2023-05-21T02:16:10.037Z,100.00
2023-05-21T02:17:11.693Z,100.00
2023-05-21T02:18:13.281Z,100.00
2023-05-21T02:19:15.195Z,100.00
2023-05-21T02:20:17.561Z,100.00
2023-05-21T02:21:19.213Z,100.00
2023-05-21T02:22:20.827Z,100.00
2023-05-21T02:23:22.382Z,100.00
2023-05-21T02:24:23.990Z,100.00
2023-05-21T02:25:25.637Z,100.00
2023-05-21T02:26:27.246Z,100.00
2023-05-21T02:27:28.816Z,100.00
2023-05-21T02:28:30.773Z,100.00
2023-05-21T02:29:32.793Z,100.00
2023-05-21T02:30:34.409Z,100.00
2023-05-21T02:31:36.059Z,100.00
2023-05-21T02:32:38.528Z,100.00
2023-05-21T02:33:41.141Z,100.00
2023-05-21T02:34:42.696Z,100.00
2023-05-21T02:35:44.263Z,100.00
2023-05-21T02:36:46.961Z,100.00
2023-05-21T02:37:48.561Z,100.00
2023-05-21T02:38:50.669Z,100.00
2023-05-21T02:39:52.228Z,100.00
2023-05-21T02:40:53.986Z,100.00
2023-05-21T02:41:55.822Z,100.00
2023-05-21T02:42:57.444Z,100.00
2023-05-21T02:43:59.046Z,100.00
2023-05-21T02:45:01.222Z,100.00
2023-05-21T02:46:05.884Z,100.00
2023-05-21T02:47:07.524Z,100.00
2023-05-21T02:48:09.209Z,100.00
2023-05-21T02:49:14.669Z,100.00
2023-05-21T02:50:18.121Z,100.00
2023-05-21T02:51:25.669Z,100.00
2023-05-21T02:52:27.575Z,100.00
2023-05-21T02:53:29.155Z,100.00
2023-05-21T02:54:31.481Z,100.00
2023-05-21T02:55:33.108Z,100.00
2023-05-21T02:56:36.051Z,100.00
2023-05-21T02:57:37.754Z,100.00
2023-05-21T02:58:39.339Z,100.00
2023-05-21T02:59:41.163Z,100.00
2023-05-21T03:00:42.774Z,100.00
2023-05-21T03:01:44.453Z,100.00
2023-05-21T03:02:46.182Z,100.00
2023-05-21T03:03:48.291Z,100.00
2023-05-21T03:04:50.161Z,100.00
2023-05-21T03:05:51.738Z,100.00
2023-05-21T03:06:53.656Z,100.00
2023-05-21T03:07:55.229Z,100.00
2023-05-21T03:08:56.857Z,100.00
2023-05-21T03:09:58.540Z,100.00
2023-05-21T03:11:00.181Z,100.00
2023-05-21T03:12:01.786Z,100.00
2023-05-21T03:13:03.697Z,100.00
2023-05-21T03:14:05.330Z,100.00
2023-05-21T03:15:07.469Z,100.00
2023-05-21T03:16:09.061Z,100.00
2023-05-21T03:17:10.685Z,100.00
2023-05-21T03:18:12.422Z,100.00
2023-05-21T03:19:14.098Z,100.00
2023-05-21T03:20:15.797Z,100.00
2023-05-21T03:21:17.654Z,100.00
2023-05-21T03:22:19.289Z,100.00
2023-05-21T03:23:21.652Z,100.00
2023-05-21T03:24:23.633Z,100.00
2023-05-21T03:25:25.360Z,100.00
2023-05-21T03:26:27.410Z,100.00
2023-05-21T03:27:29.334Z,100.00
2023-05-21T03:28:31.375Z,100.00
2023-05-21T03:29:34.146Z,100.00
2023-05-21T03:30:37.342Z,100.00
2023-05-21T03:31:57.879Z,100.00
2023-05-21T03:32:59.641Z,100.00
2023-05-21T03:34:01.260Z,100.00
2023-05-21T03:35:05.887Z,100.00
2023-05-21T03:36:07.591Z,100.00
2023-05-21T03:37:12.019Z,100.00
2023-05-21T03:38:13.676Z,100.00
2023-05-21T03:39:15.550Z,100.00
2023-05-21T03:40:17.202Z,100.00
2023-05-21T03:41:19.228Z,100.00
2023-05-21T03:42:25.225Z,100.00
2023-05-21T03:43:29.304Z,100.00
2023-05-21T03:44:30.994Z,100.00
2023-05-21T03:45:44.336Z,100.00
2023-05-21T03:47:18.551Z,100.00
2023-05-21T03:48:20.456Z,100.00
2023-05-21T03:49:22.089Z,100.00
2023-05-21T03:50:26.041Z,100.00
2023-05-21T03:51:27.803Z,100.00
2023-05-21T03:52:29.685Z,100.00
2023-05-21T03:53:33.974Z,100.00
2023-05-21T03:54:35.722Z,100.00
2023-05-21T03:55:40.649Z,100.00
2023-05-21T03:56:42.383Z,100.00
2023-05-21T03:57:44.008Z,100.00
2023-05-21T03:58:45.654Z,100.00
2023-05-21T03:59:47.250Z,100.00
2023-05-21T04:00:49.607Z,100.00
2023-05-21T04:01:51.177Z,100.00
2023-05-21T04:02:52.952Z,100.00
2023-05-21T04:03:54.703Z,100.00
2023-05-21T04:04:58.489Z,100.00
2023-05-21T04:06:00.109Z,100.00
2023-05-21T04:07:01.861Z,100.00
2023-05-21T04:08:04.018Z,100.00
2023-05-21T04:09:05.650Z,100.00
2023-05-21T04:10:07.772Z,100.00
2023-05-21T04:11:09.424Z,100.00
2023-05-21T04:12:11.003Z,100.00
2023-05-21T04:13:12.631Z,100.00
2023-05-21T04:14:14.283Z,100.00
2023-05-21T04:15:15.882Z,100.00
2023-05-21T04:16:17.610Z,100.00
2023-05-21T04:17:19.322Z,100.00
2023-05-21T04:18:21.114Z,100.00
2023-05-21T04:19:22.941Z,100.00
2023-05-21T04:20:24.744Z,100.00
2023-05-21T04:21:26.386Z,100.00
2023-05-21T04:22:27.982Z,100.00
2023-05-21T04:23:29.607Z,100.00
2023-05-21T04:24:32.618Z,100.00
2023-05-21T04:25:44.114Z,100.00
2023-05-21T04:26:46.218Z,100.00
2023-05-21T04:27:47.907Z,100.00
2023-05-21T04:28:49.778Z,100.00
2023-05-21T04:29:51.730Z,100.00
2023-05-21T04:30:53.401Z,100.00
2023-05-21T04:31:55.068Z,100.00
2023-05-21T04:32:56.663Z,100.00
2023-05-21T04:33:58.372Z,100.00
2023-05-21T04:35:01.096Z,100.00
2023-05-21T04:36:02.814Z,100.00
2023-05-21T04:37:04.800Z,100.00
2023-05-21T04:38:06.473Z,100.00
2023-05-21T04:39:08.065Z,100.00
2023-05-21T04:40:10.054Z,100.00
2023-05-21T04:41:13.347Z,100.00
2023-05-21T04:42:14.984Z,100.00
2023-05-21T04:43:16.933Z,100.00
2023-05-21T04:44:19.470Z,100.00
2023-05-21T04:45:21.552Z,100.00
2023-05-21T04:46:23.506Z,100.00
2023-05-21T04:47:25.168Z,100.00
2023-05-21T04:48:26.859Z,100.00
2023-05-21T04:49:28.579Z,100.00
2023-05-21T04:50:30.179Z,100.00
2023-05-21T04:51:31.974Z,100.00
2023-05-21T04:52:33.604Z,100.00
2023-05-21T04:53:35.227Z,100.00
2023-05-21T04:54:36.969Z,100.00
2023-05-21T04:55:38.634Z,100.00
2023-05-21T04:56:40.519Z,100.00
2023-05-21T04:57:42.123Z,100.00
2023-05-21T04:58:44.259Z,100.00
2023-05-21T04:59:46.555Z,100.00
2023-05-21T05:00:48.603Z,100.00
2023-05-21T05:01:50.363Z,100.00
2023-05-21T05:02:52.014Z,100.00
2023-05-21T05:03:53.856Z,100.00
2023-05-21T05:04:55.482Z,100.00
2023-05-21T05:05:57.084Z,100.00
2023-05-21T05:06:58.683Z,100.00
2023-05-21T05:08:00.529Z,100.00
2023-05-21T05:09:02.217Z,100.00
2023-05-21T05:10:04.401Z,100.00
2023-05-21T05:11:07.767Z,100.00
2023-05-21T05:12:09.529Z,100.00
2023-05-21T05:13:11.237Z,100.00
2023-05-21T05:14:12.828Z,100.00
2023-05-21T05:15:14.687Z,100.00
2023-05-21T05:16:16.373Z,100.00
2023-05-21T05:17:18.013Z,100.00
2023-05-21T05:18:20.012Z,100.00
2023-05-21T05:19:21.674Z,100.00
2023-05-21T05:20:23.370Z,100.00
2023-05-21T05:21:25.554Z,100.00
2023-05-21T05:22:27.289Z,100.00
2023-05-21T05:23:28.980Z,100.00
2023-05-21T05:24:30.581Z,100.00
2023-05-21T05:25:32.993Z,100.00
2023-05-21T05:26:34.606Z,100.00
2023-05-21T05:27:38.376Z,100.00
2023-05-21T05:28:40.309Z,100.00
2023-05-21T05:29:41.988Z,100.00
2023-05-21T05:30:43.687Z,100.00
2023-05-21T05:31:54.666Z,100.00
2023-05-21T05:32:56.324Z,100.00
2023-05-21T05:33:58.017Z,100.00
2023-05-21T05:35:01.600Z,100.00
2023-05-21T05:36:04.369Z,100.00
2023-05-21T05:37:05.997Z,100.00
2023-05-21T05:38:08.023Z,100.00
2023-05-21T05:39:10.897Z,100.00
2023-05-21T05:40:13.492Z,100.00
2023-05-21T05:41:15.148Z,100.00
2023-05-21T05:42:16.838Z,100.00
2023-05-21T05:43:19.641Z,100.00
2023-05-21T05:44:21.416Z,100.00
2023-05-21T05:45:23.089Z,100.00
2023-05-21T05:46:24.761Z,100.00
2023-05-21T05:47:26.764Z,100.00
2023-05-21T05:48:29.413Z,100.00
2023-05-21T05:49:32.233Z,100.00
2023-05-21T05:50:34.719Z,100.00
2023-05-21T05:51:36.371Z,100.00
2023-05-21T05:52:38.042Z,100.00
2023-05-21T05:53:39.638Z,100.00
2023-05-21T05:54:41.332Z,100.00
2023-05-21T05:55:43.768Z,100.00
2023-05-21T05:56:45.358Z,100.00
2023-05-21T05:57:46.957Z,100.00
2023-05-21T05:58:50.175Z,100.00
2023-05-21T05:59:53.789Z,100.00
2023-05-21T06:00:55.526Z,100.00
2023-05-21T06:01:57.161Z,100.00
2023-05-21T06:02:58.836Z,100.00
2023-05-21T06:04:01.632Z,100.00
2023-05-21T06:05:05.088Z,100.00
2023-05-21T06:06:06.776Z,100.00
2023-05-21T06:07:08.610Z,100.00
2023-05-21T06:08:10.460Z,100.00
2023-05-21T06:09:12.043Z,100.00
2023-05-21T06:10:13.671Z,100.00
2023-05-21T06:11:16.105Z,100.00
2023-05-21T06:12:17.755Z,100.00
2023-05-21T06:13:19.456Z,100.00
2023-05-21T06:14:21.132Z,100.00
2023-05-21T06:15:23.545Z,100.00
2023-05-21T06:16:25.489Z,100.00
2023-05-21T06:17:27.474Z,100.00
2023-05-21T06:18:29.512Z,100.00
2023-05-21T06:19:31.233Z,100.00
2023-05-21T06:20:32.978Z,100.00
2023-05-21T06:21:34.590Z,100.00
2023-05-21T06:22:38.180Z,100.00
2023-05-21T06:23:41.719Z,100.00
2023-05-21T06:24:44.163Z,100.00
2023-05-21T06:25:46.969Z,100.00
2023-05-21T06:26:49.095Z,100.00
2023-05-21T06:27:50.698Z,100.00
2023-05-21T06:28:57.851Z,100.00
2023-05-21T06:29:59.468Z,100.00
2023-05-21T06:31:01.160Z,100.00
2023-05-21T06:32:03.339Z,100.00
2023-05-21T06:33:05.105Z,100.00
2023-05-21T06:34:06.894Z,100.00
2023-05-21T06:35:08.994Z,100.00
2023-05-21T06:36:10.587Z,100.00
2023-05-21T06:37:12.219Z,100.00
2023-05-21T06:38:13.846Z,100.00
2023-05-21T06:39:15.456Z,100.00
2023-05-21T06:40:17.083Z,100.00
2023-05-21T06:41:19.944Z,100.00
2023-05-21T06:42:28.454Z,100.00
2023-05-21T06:43:48.879Z,100.00
2023-05-21T06:45:09.538Z,100.00
2023-05-21T06:46:13.056Z,100.00
2023-05-21T06:47:15.536Z,100.00
2023-05-21T06:48:18.427Z,100.00
2023-05-21T06:49:21.922Z,100.00
2023-05-21T06:50:23.540Z,100.00
2023-05-21T06:51:25.217Z,100.00
2023-05-21T06:52:26.881Z,100.00
2023-05-21T06:53:28.795Z,100.00
2023-05-21T06:54:30.560Z,100.00
2023-05-21T06:55:32.234Z,100.00
2023-05-21T06:56:55.128Z,100.00
2023-05-21T06:57:57.786Z,100.00
2023-05-21T06:58:59.404Z,100.00
2023-05-21T07:00:02.459Z,100.00
2023-05-21T07:01:06.145Z,100.00
2023-05-21T07:02:07.813Z,100.00
2023-05-21T07:03:10.022Z,100.00
2023-05-21T07:04:11.880Z,100.00
2023-05-21T07:05:14.944Z,100.00
2023-05-21T07:06:16.592Z,100.00
2023-05-21T07:07:18.297Z,100.00
2023-05-21T07:08:19.920Z,100.00
2023-05-21T07:09:21.608Z,100.00
2023-05-21T07:10:23.423Z,100.00
2023-05-21T07:11:25.043Z,100.00
2023-05-21T07:12:26.668Z,100.00
2023-05-21T07:13:29.173Z,100.00
2023-05-21T07:14:30.799Z,100.00
2023-05-21T07:15:32.722Z,100.00
2023-05-21T07:16:34.406Z,100.00
2023-05-21T07:17:37.008Z,100.00
2023-05-21T07:18:38.694Z,100.00
2023-05-21T07:19:40.310Z,100.00
2023-05-21T07:20:41.869Z,100.00
2023-05-21T07:21:47.099Z,100.00
2023-05-21T07:22:48.753Z,100.00
2023-05-21T07:23:51.811Z,100.00
2023-05-21T07:24:53.588Z,100.00
2023-05-21T07:25:55.226Z,100.00
2023-05-21T07:26:57.320Z,100.00
2023-05-21T07:27:58.931Z,100.00
2023-05-21T07:29:00.581Z,100.00
2023-05-21T07:30:02.205Z,100.00
2023-05-21T07:31:05.171Z,100.00
2023-05-21T07:32:13.033Z,100.00
2023-05-21T07:33:14.686Z,100.00
2023-05-21T07:34:17.042Z,100.00
2023-05-21T07:35:18.970Z,100.00
2023-05-21T07:36:20.603Z,100.00
2023-05-21T07:37:22.277Z,100.00
2023-05-21T07:38:24.103Z,100.00
2023-05-21T07:39:25.715Z,100.00
2023-05-21T07:40:27.589Z,100.00
2023-05-21T07:41:29.527Z,100.00
2023-05-21T07:42:32.398Z,100.00
2023-05-21T07:43:34.183Z,100.00
2023-05-21T07:44:35.929Z,100.00
2023-05-21T07:45:37.887Z,100.00
2023-05-21T07:46:40.336Z,100.00
2023-05-21T07:47:44.979Z,100.00
2023-05-21T07:48:46.627Z,100.00
2023-05-21T07:49:48.382Z,100.00
2023-05-21T07:50:50.154Z,100.00
2023-05-21T07:51:52.040Z,100.00
2023-05-21T07:52:54.311Z,100.00
2023-05-21T07:53:56.007Z,100.00
2023-05-21T07:55:05.196Z,100.00
2023-05-21T07:56:09.727Z,100.00
2023-05-21T07:57:11.602Z,100.00
2023-05-21T07:58:29.727Z,100.00
2023-05-21T07:59:31.398Z,100.00
2023-05-21T08:00:42.852Z,100.00
2023-05-21T08:01:45.643Z,100.00
2023-05-21T08:02:47.376Z,100.00
2023-05-21T08:03:50.320Z,100.00
2023-05-21T08:04:52.032Z,100.00
2023-05-21T08:05:53.688Z,100.00
2023-05-21T08:06:55.271Z,100.00
2023-05-21T08:07:56.852Z,100.00
2023-05-21T08:08:58.585Z,100.00
2023-05-21T08:10:02.170Z,100.00
2023-05-21T08:11:04.611Z,100.00
2023-05-21T08:12:06.699Z,100.00
2023-05-21T08:13:10.075Z,100.00
2023-05-21T08:14:11.722Z,100.00
2023-05-21T08:15:13.365Z,100.00
2023-05-21T08:16:19.085Z,100.00
2023-05-21T08:17:20.756Z,100.00
2023-05-21T08:18:22.515Z,100.00
2023-05-21T08:19:25.286Z,100.00
2023-05-21T08:20:26.960Z,100.00
2023-05-21T08:21:28.557Z,100.00
2023-05-21T08:22:30.505Z,100.00
2023-05-21T08:23:32.100Z,100.00
2023-05-21T08:24:34.869Z,100.00
2023-05-21T08:25:36.954Z,100.00
2023-05-21T08:26:39.329Z,100.00
2023-05-21T08:27:40.950Z,100.00
2023-05-21T08:28:43.315Z,100.00
2023-05-21T08:29:44.945Z,100.00
2023-05-21T08:30:46.546Z,100.00
2023-05-21T08:31:48.216Z,100.00
2023-05-21T08:32:49.961Z,100.00
2023-05-21T08:33:54.437Z,100.00
2023-05-21T08:35:04.212Z,100.00
2023-05-21T08:36:28.614Z,100.00
2023-05-21T08:37:35.887Z,100.00
2023-05-21T08:38:48.523Z,100.00
2023-05-21T08:39:59.754Z,100.00
2023-05-21T08:41:07.665Z,100.00
2023-05-21T08:42:35.665Z,100.00
2023-05-21T08:43:39.573Z,100.00
2023-05-21T08:44:47.694Z,100.00
2023-05-21T08:45:54.043Z,100.00
2023-05-21T08:46:59.127Z,100.00
2023-05-21T08:48:00.909Z,99.35
2023-05-21T08:49:11.326Z,100.00
2023-05-21T08:50:15.720Z,100.00
2023-05-21T08:51:17.400Z,100.00
2023-05-21T08:52:23.290Z,100.00
2023-05-21T08:53:28.536Z,100.00
2023-05-21T08:54:31.861Z,100.00
2023-05-21T08:55:33.514Z,100.00
2023-05-21T08:56:35.394Z,98.73
2023-05-21T08:57:37.340Z,98.97
2023-05-21T08:58:42.275Z,99.75
2023-05-21T08:59:44.137Z,99.79
2023-05-21T09:00:55.239Z,95.69
2023-05-21T09:02:00.284Z,99.85
2023-05-21T09:03:09.083Z,98.65
2023-05-21T09:04:20.887Z,97.08
2023-05-21T09:05:26.850Z,97.13
2023-05-21T09:06:29.006Z,92.21
2023-05-21T09:07:39.151Z,94.23
2023-05-21T09:09:02.470Z,95.28
2023-05-21T09:10:14.124Z,96.70
2023-05-21T09:11:16.590Z,93.73
2023-05-21T09:12:25.019Z,90.46
2023-05-21T09:13:28.315Z,91.87
2023-05-21T09:14:30.859Z,91.58
2023-05-21T09:15:47.424Z,88.65
2023-05-21T09:16:50.558Z,88.51
2023-05-21T09:17:53.322Z,89.19
2023-05-21T09:19:24.462Z,90.87
2023-05-21T09:20:27.644Z,91.62
2023-05-21T09:21:33.968Z,93.52
2023-05-21T09:22:49.031Z,93.89
2023-05-21T09:23:59.091Z,92.07
2023-05-21T09:25:04.595Z,89.31
2023-05-21T09:26:12.253Z,91.83
2023-05-21T09:27:18.018Z,84.19
2023-05-21T09:28:19.903Z,83.88
2023-05-21T09:29:21.611Z,84.40
2023-05-21T09:30:26.810Z,86.27
2023-05-21T09:31:30.422Z,88.24
2023-05-21T09:32:32.081Z,89.81
2023-05-21T09:33:33.879Z,89.15
2023-05-21T09:34:36.535Z,82.34
2023-05-21T09:35:44.048Z,85.44
2023-05-21T09:36:45.755Z,86.54
2023-05-21T09:37:49.118Z,87.56
2023-05-21T09:38:51.450Z,83.92
2023-05-21T09:39:53.042Z,79.09
2023-05-21T09:40:57.338Z,79.83
2023-05-21T09:41:59.747Z,82.65
2023-05-21T09:43:01.967Z,83.33
2023-05-21T09:44:04.337Z,85.59
2023-05-21T09:45:10.108Z,81.94
2023-05-21T09:46:12.032Z,83.77
2023-05-21T09:47:19.906Z,82.58
2023-05-21T09:48:40.793Z,84.70
2023-05-21T09:49:45.344Z,87.86
2023-05-21T09:50:46.903Z,81.31
2023-05-21T09:51:48.537Z,83.16
2023-05-21T09:52:51.596Z,82.66
2023-05-21T09:53:57.454Z,83.69
2023-05-21T09:54:59.009Z,82.05
2023-05-21T09:56:00.608Z,81.17
2023-05-21T09:57:03.625Z,79.39
2023-05-21T09:58:05.418Z,82.50
2023-05-21T09:59:07.594Z,82.50
2023-05-21T10:00:17.022Z,80.37
2023-05-21T10:01:19.391Z,81.79
2023-05-21T10:02:23.591Z,81.55
2023-05-21T10:03:27.680Z,80.04
2023-05-21T10:04:30.258Z,78.77
2023-05-21T10:05:33.078Z,78.25
2023-05-21T10:06:42.006Z,79.86
2023-05-21T10:07:51.440Z,79.90
2023-05-21T10:08:55.623Z,76.00
2023-05-21T10:10:00.082Z,76.84
2023-05-21T10:11:03.858Z,81.17
2023-05-21T10:12:06.236Z,78.41
2023-05-21T10:13:10.037Z,83.95
2023-05-21T10:14:23.262Z,83.93
2023-05-21T10:15:25.251Z,85.72
2023-05-21T10:16:27.012Z,78.75
2023-05-21T10:17:30.133Z,78.96
2023-05-21T10:18:33.358Z,79.24
2023-05-21T10:19:35.198Z,77.79
2023-05-21T10:20:38.182Z,75.70
2023-05-21T10:21:40.961Z,76.43
2023-05-21T10:22:43.914Z,79.59
2023-05-21T10:23:46.231Z,81.39
2023-05-21T10:24:48.677Z,80.20
2023-05-21T10:25:51.206Z,79.14
2023-05-21T10:26:53.514Z,80.90
2023-05-21T10:27:55.854Z,80.42
2023-05-21T10:28:57.577Z,80.11
2023-05-21T10:30:00.040Z,77.07
2023-05-21T10:31:02.391Z,77.86
2023-05-21T10:32:05.526Z,78.29
2023-05-21T10:33:07.840Z,76.96
2023-05-21T10:34:11.492Z,74.20
2023-05-21T10:35:16.165Z,75.11
2023-05-21T10:36:17.768Z,77.62
2023-05-21T10:37:22.973Z,76.25
2023-05-21T10:38:25.226Z,74.12
2023-05-21T10:39:27.402Z,71.94
2023-05-21T10:40:28.933Z,73.65
2023-05-21T10:41:42.312Z,74.96
2023-05-21T10:42:57.100Z,71.50
2023-05-21T10:44:19.602Z,70.61
2023-05-21T10:45:23.791Z,73.08
2023-05-21T10:46:45.906Z,71.40
2023-05-21T10:47:47.537Z,68.84
2023-05-21T10:49:16.158Z,69.92
2023-05-21T10:50:36.035Z,69.39
2023-05-21T10:52:06.724Z,71.37
2023-05-21T10:53:35.166Z,67.34
2023-05-21T10:55:00.666Z,70.31
2023-05-21T10:56:05.218Z,69.41
2023-05-21T10:57:31.701Z,68.86
2023-05-21T10:59:23.858Z,69.16
2023-05-21T11:00:27.329Z,68.81
2023-05-21T11:01:31.336Z,69.51
2023-05-21T11:02:33.498Z,67.82
2023-05-21T11:03:37.871Z,68.88
2023-05-21T11:04:41.176Z,68.42
2023-05-21T11:05:56.263Z,69.90
2023-05-21T11:07:00.815Z,68.84
2023-05-21T11:08:02.436Z,68.19
2023-05-21T11:09:14.605Z,66.60
2023-05-21T11:10:41.246Z,65.73
2023-05-21T11:11:49.820Z,68.77
2023-05-21T11:13:13.919Z,65.11
2023-05-21T11:14:38.192Z,66.61
2023-05-21T11:15:58.140Z,69.43
2023-05-21T11:17:00.919Z,65.79
2023-05-21T11:18:02.660Z,66.27
2023-05-21T11:19:04.434Z,64.24
2023-05-21T11:20:11.408Z,66.74
2023-05-21T11:21:17.149Z,65.37
2023-05-21T11:22:26.376Z,62.77
2023-05-21T11:23:50.536Z,64.24
2023-05-21T11:24:56.399Z,64.81
2023-05-21T11:26:01.618Z,61.41
2023-05-21T11:27:03.682Z,64.95
2023-05-21T11:28:08.155Z,61.48
2023-05-21T11:29:11.071Z,62.67
2023-05-21T11:30:19.417Z,63.82
2023-05-21T11:31:28.137Z,63.69
2023-05-21T11:32:29.815Z,64.70
2023-05-21T11:33:31.472Z,64.77
2023-05-21T11:34:43.578Z,64.04
2023-05-21T11:35:45.163Z,61.67
2023-05-21T11:36:48.680Z,60.45
2023-05-21T11:37:54.206Z,62.87
2023-05-21T11:39:09.358Z,61.93
2023-05-21T11:40:21.081Z,61.50
2023-05-21T11:41:22.944Z,61.94
2023-05-21T11:42:30.417Z,63.88
2023-05-21T11:43:32.005Z,64.50
2023-05-21T11:44:42.943Z,61.63
2023-05-21T11:45:44.553Z,64.30
2023-05-21T11:46:46.536Z,61.58
2023-05-21T11:47:50.011Z,60.09
2023-05-21T11:48:52.654Z,61.19
2023-05-21T11:49:55.360Z,60.37
2023-05-21T11:50:57.173Z,59.16
2023-05-21T11:52:00.372Z,60.66
2023-05-21T11:53:02.322Z,62.00
2023-05-21T11:54:04.307Z,59.53
2023-05-21T11:55:06.510Z,59.08
2023-05-21T11:56:08.528Z,58.92
2023-05-21T11:57:10.369Z,63.02
2023-05-21T11:58:13.319Z,59.43
2023-05-21T11:59:17.133Z,60.62
2023-05-21T12:00:20.329Z,58.90
2023-05-21T12:01:23.912Z,59.24
2023-05-21T12:02:27.412Z,59.24
2023-05-21T12:03:29.182Z,60.38
2023-05-21T12:04:31.689Z,62.42
2023-05-21T12:05:47.124Z,60.01
2023-05-21T12:06:48.794Z,61.58
2023-05-21T12:07:50.549Z,60.71
2023-05-21T12:08:52.254Z,60.03
2023-05-21T12:09:54.466Z,59.99
2023-05-21T12:11:00.282Z,60.36
2023-05-21T12:12:02.070Z,60.53
2023-05-21T12:13:03.720Z,62.38
2023-05-21T12:14:10.803Z,59.96
2023-05-21T12:15:12.497Z,61.17
2023-05-21T12:16:14.979Z,65.36
2023-05-21T12:17:20.653Z,63.71
2023-05-21T12:18:22.294Z,66.79
2023-05-21T12:19:24.176Z,65.97
2023-05-21T12:20:26.695Z,67.12
2023-05-21T12:21:29.594Z,66.10
2023-05-21T12:22:31.330Z,61.95
2023-05-21T12:23:32.925Z,63.25
2023-05-21T12:24:35.719Z,64.03
2023-05-21T12:25:37.369Z,63.36
2023-05-21T12:26:39.058Z,62.03
2023-05-21T12:27:40.888Z,64.71
2023-05-21T12:28:42.640Z,62.88
2023-05-21T12:29:45.937Z,60.37
2023-05-21T12:30:48.134Z,61.13
2023-05-21T12:31:50.471Z,59.52
2023-05-21T12:32:52.181Z,57.63
2023-05-21T12:33:53.957Z,56.13
2023-05-21T12:34:56.214Z,58.70
2023-05-21T12:35:57.839Z,60.61
2023-05-21T12:36:59.459Z,61.02
2023-05-21T12:38:01.632Z,61.20
2023-05-21T12:39:03.444Z,58.54
2023-05-21T12:40:06.607Z,56.71
2023-05-21T12:41:08.294Z,57.55
2023-05-21T12:42:10.302Z,59.51
2023-05-21T12:43:12.001Z,58.12
2023-05-21T12:44:13.641Z,57.37
2023-05-21T12:45:16.942Z,55.18
2023-05-21T12:46:18.612Z,55.78
2023-05-21T12:47:23.609Z,57.81
2023-05-21T12:48:25.359Z,57.54
2023-05-21T12:49:39.113Z,59.84
2023-05-21T12:50:40.722Z,57.23
2023-05-21T12:51:45.142Z,57.79
2023-05-21T12:52:46.770Z,59.65
2023-05-21T12:53:48.393Z,61.94
2023-05-21T12:54:52.215Z,58.13
2023-05-21T12:55:54.230Z,58.60
2023-05-21T12:56:55.808Z,57.25
2023-05-21T12:58:04.821Z,57.78
2023-05-21T12:59:13.195Z,57.79
2023-05-21T13:00:14.783Z,58.12
2023-05-21T13:01:16.420Z,56.34
2023-05-21T13:02:29.005Z,54.85
2023-05-21T13:03:32.368Z,56.35
2023-05-21T13:04:36.488Z,56.04
2023-05-21T13:05:40.720Z,54.80
2023-05-21T13:06:43.417Z,52.87
2023-05-21T13:07:45.891Z,52.59
2023-05-21T13:08:47.799Z,54.35
2023-05-21T13:09:49.698Z,54.24
2023-05-21T13:10:51.293Z,52.49
2023-05-21T13:11:52.829Z,52.74
2023-05-21T13:12:54.420Z,54.44
2023-05-21T13:13:56.000Z,55.59
2023-05-21T13:14:59.524Z,57.23
2023-05-21T13:16:01.229Z,54.05
2023-05-21T13:17:02.996Z,55.11
2023-05-21T13:18:04.690Z,52.70
2023-05-21T13:19:06.552Z,51.84
2023-05-21T13:20:11.232Z,51.91
2023-05-21T13:21:12.804Z,52.70
2023-05-21T13:22:14.384Z,54.65
2023-05-21T13:23:16.024Z,52.69
2023-05-21T13:24:17.610Z,52.76